sensor_id;sensor_type;location;lat;lon;timestamp;pressure;altitude;pressure_sealevel;temperature;humidity
19208;BME280;9737;59.466;18.036;2022-08-03T00:00:37;100278.41;;;16.11;46.73
19208;BME280;9737;59.466;18.036;2022-08-03T00:03:06;100252.66;;;16.01;46.89
19208;BME280;9737;59.466;18.036;2022-08-03T00:05:35;100203.88;;;15.88;47.09
19208;BME280;9737;59.466;18.036;2022-08-03T00:08:04;100227.13;;;15.97;47.02
19208;BME280;9737;59.466;18.036;2022-08-03T00:10:32;100242.22;;;15.98;47.29
19208;BME280;9737;59.466;18.036;2022-08-03T00:13:01;100239.00;;;15.94;47.45
19208;BME280;9737;59.466;18.036;2022-08-03T00:15:30;100247.28;;;16.01;47.29
19208;BME280;9737;59.466;18.036;2022-08-03T00:17:58;100170.56;;;15.72;47.37
19208;BME280;9737;59.466;18.036;2022-08-03T00:20:28;100127.75;;;15.63;47.51
19208;BME280;9737;59.466;18.036;2022-08-03T00:22:57;100113.19;;;15.65;47.43
19208;BME280;9737;59.466;18.036;2022-08-03T00:25:26;100116.88;;;15.64;47.50
19208;BME280;9737;59.466;18.036;2022-08-03T00:27:55;100066.06;;;15.45;47.85
19208;BME280;9737;59.466;18.036;2022-08-03T00:30:25;100097.72;;;15.59;47.83
19208;BME280;9737;59.466;18.036;2022-08-03T00:32:57;100175.47;;;15.77;47.83
19208;BME280;9737;59.466;18.036;2022-08-03T00:35:28;100109.84;;;15.63;48.09
19208;BME280;9737;59.466;18.036;2022-08-03T00:38:18;100048.53;;;15.33;47.94
19208;BME280;9737;59.466;18.036;2022-08-03T00:40:46;100037.88;;;15.41;47.96
19208;BME280;9737;59.466;18.036;2022-08-03T00:43:15;100003.28;;;15.30;48.24
19208;BME280;9737;59.466;18.036;2022-08-03T00:45:44;99957.50;;;15.23;48.14
19208;BME280;9737;59.466;18.036;2022-08-03T00:48:16;99910.53;;;15.11;48.26
19208;BME280;9737;59.466;18.036;2022-08-03T00:50:59;99863.72;;;14.97;48.51
19208;BME280;9737;59.466;18.036;2022-08-03T00:53:27;99827.41;;;14.77;48.19
19208;BME280;9737;59.466;18.036;2022-08-03T00:55:58;99829.16;;;14.86;48.48
19208;BME280;9737;59.466;18.036;2022-08-03T00:58:26;99797.66;;;14.80;48.61
19208;BME280;9737;59.466;18.036;2022-08-03T01:00:56;99778.56;;;14.75;48.53
19208;BME280;9737;59.466;18.036;2022-08-03T01:03:24;99746.34;;;14.67;48.68
19208;BME280;9737;59.466;18.036;2022-08-03T01:05:57;99686.84;;;14.47;48.77
19208;BME280;9737;59.466;18.036;2022-08-03T01:08:31;99680.34;;;14.49;48.86
19208;BME280;9737;59.466;18.036;2022-08-03T01:11:09;99673.19;;;14.40;49.01
19208;BME280;9737;59.466;18.036;2022-08-03T01:13:44;99736.28;;;14.61;49.19
19208;BME280;9737;59.466;18.036;2022-08-03T01:16:36;99836.19;;;14.87;49.34
19208;BME280;9737;59.466;18.036;2022-08-03T01:19:29;99844.47;;;14.76;49.19
19208;BME280;9737;59.466;18.036;2022-08-03T01:22:09;99888.13;;;14.94;49.17
19208;BME280;9737;59.466;18.036;2022-08-03T01:24:50;99894.53;;;15.01;49.39
19208;BME280;9737;59.466;18.036;2022-08-03T01:27:31;99941.84;;;15.10;49.36
19208;BME280;9737;59.466;18.036;2022-08-03T01:30:08;99972.22;;;15.19;49.51
19208;BME280;9737;59.466;18.036;2022-08-03T01:32:41;99977.41;;;15.21;49.88
19208;BME280;9737;59.466;18.036;2022-08-03T01:35:32;100020.66;;;15.26;49.68
19208;BME280;9737;59.466;18.036;2022-08-03T01:38:09;100077.09;;;15.42;49.92
19208;BME280;9737;59.466;18.036;2022-08-03T01:40:39;100102.28;;;15.49;50.02
19208;BME280;9737;59.466;18.036;2022-08-03T01:43:09;100140.03;;;15.56;49.87
19208;BME280;9737;59.466;18.036;2022-08-03T01:46:02;100158.34;;;15.60;50.15
19208;BME280;9737;59.466;18.036;2022-08-03T01:48:31;100189.63;;;15.69;50.27
19208;BME280;9737;59.466;18.036;2022-08-03T01:51:00;100184.59;;;15.66;50.31
19208;BME280;9737;59.466;18.036;2022-08-03T01:53:30;100208.94;;;15.73;50.17
19208;BME280;9737;59.466;18.036;2022-08-03T01:56:01;100223.50;;;15.70;50.52
19208;BME280;9737;59.466;18.036;2022-08-03T01:58:31;100242.03;;;15.82;50.49
19208;BME280;9737;59.466;18.036;2022-08-03T02:01:04;100235.00;;;15.80;50.73
19208;BME280;9737;59.466;18.036;2022-08-03T02:03:35;100252.63;;;15.83;50.70
19208;BME280;9737;59.466;18.036;2022-08-03T02:06:25;100233.31;;;15.79;50.75
19208;BME280;9737;59.466;18.036;2022-08-03T02:09:14;100243.25;;;15.69;50.89
19208;BME280;9737;59.466;18.036;2022-08-03T02:11:46;100269.25;;;15.87;51.04
19208;BME280;9737;59.466;18.036;2022-08-03T02:14:15;100271.94;;;15.87;51.04
19208;BME280;9737;59.466;18.036;2022-08-03T02:16:45;100273.63;;;15.88;51.13
19208;BME280;9737;59.466;18.036;2022-08-03T02:19:16;100255.75;;;15.78;51.11
19208;BME280;9737;59.466;18.036;2022-08-03T02:21:45;100275.59;;;15.86;51.30
19208;BME280;9737;59.466;18.036;2022-08-03T02:24:23;100281.66;;;15.88;51.33
19208;BME280;9737;59.466;18.036;2022-08-03T02:26:55;100287.03;;;15.88;51.55
19208;BME280;9737;59.466;18.036;2022-08-03T02:29:25;100295.91;;;15.88;51.59
19208;BME280;9737;59.466;18.036;2022-08-03T02:32:09;100300.16;;;15.91;51.64
19208;BME280;9737;59.466;18.036;2022-08-03T02:34:41;100296.22;;;15.85;51.65
19208;BME280;9737;59.466;18.036;2022-08-03T02:37:12;100272.84;;;15.77;51.77
19208;BME280;9737;59.466;18.036;2022-08-03T02:39:42;100319.63;;;15.93;51.77
19208;BME280;9737;59.466;18.036;2022-08-03T02:42:13;100314.25;;;15.93;51.72
19208;BME280;9737;59.466;18.036;2022-08-03T02:44:48;100338.78;;;15.98;51.86
19208;BME280;9737;59.466;18.036;2022-08-03T02:47:25;100327.25;;;15.88;51.79
19208;BME280;9737;59.466;18.036;2022-08-03T02:50:15;100344.16;;;15.98;52.09
19208;BME280;9737;59.466;18.036;2022-08-03T02:52:44;100338.09;;;15.96;52.11
19208;BME280;9737;59.466;18.036;2022-08-03T02:55:19;100349.38;;;15.99;52.12
19208;BME280;9737;59.466;18.036;2022-08-03T02:57:49;100350.50;;;15.97;52.24
19208;BME280;9737;59.466;18.036;2022-08-03T03:00:18;100347.84;;;15.97;52.44
19208;BME280;9737;59.466;18.036;2022-08-03T03:02:56;100346.00;;;15.97;52.35
19208;BME280;9737;59.466;18.036;2022-08-03T03:05:26;100347.28;;;15.93;52.48
19208;BME280;9737;59.466;18.036;2022-08-03T03:08:17;100361.94;;;15.99;52.37
19208;BME280;9737;59.466;18.036;2022-08-03T03:10:47;100315.97;;;15.84;52.70
19208;BME280;9737;59.466;18.036;2022-08-03T03:13:21;100321.88;;;15.88;52.54
19208;BME280;9737;59.466;18.036;2022-08-03T03:15:51;100296.50;;;15.82;52.61
19208;BME280;9737;59.466;18.036;2022-08-03T03:18:21;100294.59;;;15.74;52.84
19208;BME280;9737;59.466;18.036;2022-08-03T03:20:52;100319.06;;;15.89;52.74
19208;BME280;9737;59.466;18.036;2022-08-03T03:23:21;100273.44;;;15.71;52.88
19208;BME280;9737;59.466;18.036;2022-08-03T03:25:51;100289.91;;;15.76;52.85
19208;BME280;9737;59.466;18.036;2022-08-03T03:28:20;100288.22;;;15.75;53.02
19208;BME280;9737;59.466;18.036;2022-08-03T03:30:50;100277.97;;;15.71;53.00
19208;BME280;9737;59.466;18.036;2022-08-03T03:33:21;100271.47;;;15.73;53.00
19208;BME280;9737;59.466;18.036;2022-08-03T03:35:50;100278.50;;;15.74;53.12
19208;BME280;9737;59.466;18.036;2022-08-03T03:38:18;100269.75;;;15.72;53.05
19208;BME280;9737;59.466;18.036;2022-08-03T03:40:47;100259.34;;;15.69;52.94
19208;BME280;9737;59.466;18.036;2022-08-03T03:43:16;100254.84;;;15.60;53.22
19208;BME280;9737;59.466;18.036;2022-08-03T03:45:46;100259.94;;;15.63;53.42
19208;BME280;9737;59.466;18.036;2022-08-03T03:48:15;100281.09;;;15.66;53.31
19208;BME280;9737;59.466;18.036;2022-08-03T03:50:45;100316.81;;;15.85;53.49
19208;BME280;9737;59.466;18.036;2022-08-03T03:53:15;100339.81;;;15.87;53.44
19208;BME280;9737;59.466;18.036;2022-08-03T03:55:43;100312.06;;;15.78;53.50
19208;BME280;9737;59.466;18.036;2022-08-03T03:58:30;100322.25;;;15.75;53.63
19208;BME280;9737;59.466;18.036;2022-08-03T04:00:59;100338.13;;;15.86;53.53
19208;BME280;9737;59.466;18.036;2022-08-03T04:03:27;100335.44;;;15.86;53.73
19208;BME280;9737;59.466;18.036;2022-08-03T04:05:57;100302.53;;;15.66;53.74
19208;BME280;9737;59.466;18.036;2022-08-03T04:08:51;100357.75;;;15.87;53.76
19208;BME280;9737;59.466;18.036;2022-08-03T04:11:39;100367.06;;;15.92;53.90
19208;BME280;9737;59.466;18.036;2022-08-03T04:14:11;100322.16;;;15.67;53.89
19208;BME280;9737;59.466;18.036;2022-08-03T04:16:42;100418.97;;;16.01;54.06
19208;BME280;9737;59.466;18.036;2022-08-03T04:19:17;100462.38;;;16.14;54.10
19208;BME280;9737;59.466;18.036;2022-08-03T04:21:53;100473.09;;;16.14;54.20
19208;BME280;9737;59.466;18.036;2022-08-03T04:24:24;100487.22;;;16.16;54.10
19208;BME280;9737;59.466;18.036;2022-08-03T04:26:55;100516.03;;;16.24;54.31
19208;BME280;9737;59.466;18.036;2022-08-03T04:29:25;100554.25;;;16.35;54.40
19208;BME280;9737;59.466;18.036;2022-08-03T04:31:56;100547.38;;;16.23;54.26
19208;BME280;9737;59.466;18.036;2022-08-03T04:34:28;100632.88;;;16.46;54.61
19208;BME280;9737;59.466;18.036;2022-08-03T04:37:00;100638.56;;;16.42;54.60
19208;BME280;9737;59.466;18.036;2022-08-03T04:39:30;100674.41;;;16.61;54.65
19208;BME280;9737;59.466;18.036;2022-08-03T04:42:05;100667.09;;;16.43;54.56
19208;BME280;9737;59.466;18.036;2022-08-03T04:44:37;100790.84;;;16.89;54.68
19208;BME280;9737;59.466;18.036;2022-08-03T04:47:06;100823.94;;;16.89;54.66
19208;BME280;9737;59.466;18.036;2022-08-03T04:49:37;100889.38;;;17.08;54.77
19208;BME280;9737;59.466;18.036;2022-08-03T04:52:08;100916.94;;;17.19;54.82
19208;BME280;9737;59.466;18.036;2022-08-03T04:54:40;100872.97;;;16.91;54.90
19208;BME280;9737;59.466;18.036;2022-08-03T04:57:18;101001.81;;;17.41;55.07
19208;BME280;9737;59.466;18.036;2022-08-03T04:59:50;101096.59;;;17.62;55.17
19208;BME280;9737;59.466;18.036;2022-08-03T05:02:28;101239.38;;;17.90;55.21
19208;BME280;9737;59.466;18.036;2022-08-03T05:04:57;101287.28;;;18.06;55.24
19208;BME280;9737;59.466;18.036;2022-08-03T05:07:27;101348.53;;;18.23;55.30
19208;BME280;9737;59.466;18.036;2022-08-03T05:10:04;101354.75;;;18.23;55.37
19208;BME280;9737;59.466;18.036;2022-08-03T05:12:41;101337.44;;;18.16;55.32
19208;BME280;9737;59.466;18.036;2022-08-03T05:15:09;101319.72;;;18.04;55.41
19208;BME280;9737;59.466;18.036;2022-08-03T05:17:38;101318.03;;;18.13;55.57
19208;BME280;9737;59.466;18.036;2022-08-03T05:20:07;101315.63;;;18.10;55.76
19208;BME280;9737;59.466;18.036;2022-08-03T05:22:38;101259.38;;;17.97;55.71
19208;BME280;9737;59.466;18.036;2022-08-03T05:25:07;101236.25;;;17.85;55.40
19208;BME280;9737;59.466;18.036;2022-08-03T05:27:45;101199.44;;;17.76;55.67
19208;BME280;9737;59.466;18.036;2022-08-03T05:30:16;101200.28;;;17.76;55.62
19208;BME280;9737;59.466;18.036;2022-08-03T05:32:59;101211.06;;;17.86;55.77
19208;BME280;9737;59.466;18.036;2022-08-03T05:35:27;101235.41;;;17.84;55.78
19208;BME280;9737;59.466;18.036;2022-08-03T05:38:16;101268.59;;;17.94;56.13
19208;BME280;9737;59.466;18.036;2022-08-03T05:41:00;101222.94;;;17.83;55.84
19208;BME280;9737;59.466;18.036;2022-08-03T05:43:50;101243.63;;;17.92;55.90
19208;BME280;9737;59.466;18.036;2022-08-03T05:46:20;101229.19;;;17.74;55.87
19208;BME280;9737;59.466;18.036;2022-08-03T05:48:50;101284.13;;;17.91;56.06
19208;BME280;9737;59.466;18.036;2022-08-03T05:51:19;101372.91;;;18.21;56.08
19208;BME280;9737;59.466;18.036;2022-08-03T05:53:48;101413.16;;;18.33;56.09
19208;BME280;9737;59.466;18.036;2022-08-03T05:56:20;101467.88;;;18.43;56.17
19208;BME280;9737;59.466;18.036;2022-08-03T05:58:49;101471.28;;;18.45;56.27
19208;BME280;9737;59.466;18.036;2022-08-03T06:01:19;101474.25;;;18.42;56.27
19208;BME280;9737;59.466;18.036;2022-08-03T06:03:49;101483.47;;;18.49;56.20
19208;BME280;9737;59.466;18.036;2022-08-03T06:06:18;101521.94;;;18.51;56.18
19208;BME280;9737;59.466;18.036;2022-08-03T06:08:46;101505.31;;;18.46;56.50
19208;BME280;9737;59.466;18.036;2022-08-03T06:11:17;101425.00;;;18.20;56.37
19208;BME280;9737;59.466;18.036;2022-08-03T06:13:45;101416.50;;;18.15;56.42
19208;BME280;9737;59.466;18.036;2022-08-03T06:16:14;101440.91;;;18.23;56.38
19208;BME280;9737;59.466;18.036;2022-08-03T06:18:42;101508.56;;;18.49;56.47
19208;BME280;9737;59.466;18.036;2022-08-03T06:21:10;101507.28;;;18.44;56.51
19208;BME280;9737;59.466;18.036;2022-08-03T06:23:42;101527.13;;;18.43;56.51
19208;BME280;9737;59.466;18.036;2022-08-03T06:26:21;101595.00;;;18.67;56.61
19208;BME280;9737;59.466;18.036;2022-08-03T06:28:49;101662.47;;;18.86;56.57
19208;BME280;9737;59.466;18.036;2022-08-03T06:31:21;101673.81;;;18.80;56.59
19208;BME280;9737;59.466;18.036;2022-08-03T06:33:50;101710.56;;;18.91;56.64
19208;BME280;9737;59.466;18.036;2022-08-03T06:36:38;101759.44;;;19.07;56.78
19208;BME280;9737;59.466;18.036;2022-08-03T06:39:06;101799.22;;;19.15;56.93
19208;BME280;9737;59.466;18.036;2022-08-03T06:41:36;101831.00;;;19.11;56.83
19208;BME280;9737;59.466;18.036;2022-08-03T06:44:11;101898.72;;;19.39;56.89
19208;BME280;9737;59.466;18.036;2022-08-03T06:46:39;101912.56;;;19.34;57.00
19208;BME280;9737;59.466;18.036;2022-08-03T06:49:11;101937.06;;;19.42;56.78
19208;BME280;9737;59.466;18.036;2022-08-03T06:51:39;101838.69;;;19.16;56.85
19208;BME280;9737;59.466;18.036;2022-08-03T06:54:27;101843.53;;;19.22;56.98
19208;BME280;9737;59.466;18.036;2022-08-03T06:57:00;101777.00;;;19.02;56.94
19208;BME280;9737;59.466;18.036;2022-08-03T06:59:29;101703.34;;;18.92;57.00
19208;BME280;9737;59.466;18.036;2022-08-03T07:02:17;101763.97;;;19.07;57.09
19208;BME280;9737;59.466;18.036;2022-08-03T07:04:46;101783.84;;;19.06;57.00
19208;BME280;9737;59.466;18.036;2022-08-03T07:07:14;101839.25;;;19.19;57.08
19208;BME280;9737;59.466;18.036;2022-08-03T07:09:43;101853.44;;;19.12;57.20
19208;BME280;9737;59.466;18.036;2022-08-03T07:12:29;101884.72;;;19.24;57.11
19208;BME280;9737;59.466;18.036;2022-08-03T07:14:58;101898.84;;;19.37;57.27
19208;BME280;9737;59.466;18.036;2022-08-03T07:17:30;101929.69;;;19.44;57.19
19208;BME280;9737;59.466;18.036;2022-08-03T07:20:04;101969.16;;;19.45;57.26
19208;BME280;9737;59.466;18.036;2022-08-03T07:22:32;101979.31;;;19.53;57.40
19208;BME280;9737;59.466;18.036;2022-08-03T07:25:01;101994.38;;;19.56;57.48
19208;BME280;9737;59.466;18.036;2022-08-03T07:27:34;102004.91;;;19.59;57.34
19208;BME280;9737;59.466;18.036;2022-08-03T07:30:06;102039.72;;;19.62;57.45
19208;BME280;9737;59.466;18.036;2022-08-03T07:32:35;102073.31;;;19.69;57.48
19208;BME280;9737;59.466;18.036;2022-08-03T07:35:16;102127.03;;;19.72;57.58
19208;BME280;9737;59.466;18.036;2022-08-03T07:37:50;102181.41;;;19.88;57.42
19208;BME280;9737;59.466;18.036;2022-08-03T07:40:21;102184.84;;;19.90;57.73
19208;BME280;9737;59.466;18.036;2022-08-03T07:42:55;102164.03;;;19.81;57.69
19208;BME280;9737;59.466;18.036;2022-08-03T07:45:24;102170.28;;;19.82;57.71
19208;BME280;9737;59.466;18.036;2022-08-03T07:47:52;102244.81;;;20.05;57.91
19208;BME280;9737;59.466;18.036;2022-08-03T07:50:21;102296.44;;;20.11;57.80
19208;BME280;9737;59.466;18.036;2022-08-03T07:52:57;102331.50;;;20.23;57.80
19208;BME280;9737;59.466;18.036;2022-08-03T07:55:25;102365.66;;;20.24;57.80
19208;BME280;9737;59.466;18.036;2022-08-03T07:58:03;102492.06;;;20.63;57.73
19208;BME280;9737;59.466;18.036;2022-08-03T08:00:41;102544.00;;;20.78;57.79
19208;BME280;9737;59.466;18.036;2022-08-03T08:03:11;102615.88;;;20.92;57.87
19208;BME280;9737;59.466;18.036;2022-08-03T08:05:47;102690.84;;;21.01;57.89
19208;BME280;9737;59.466;18.036;2022-08-03T08:08:15;102699.69;;;21.03;57.89
19208;BME280;9737;59.466;18.036;2022-08-03T08:10:44;102683.97;;;20.97;57.99
19208;BME280;9737;59.466;18.036;2022-08-03T08:13:28;102670.72;;;20.94;58.07
19208;BME280;9737;59.466;18.036;2022-08-03T08:16:02;102783.44;;;21.27;58.25
19208;BME280;9737;59.466;18.036;2022-08-03T08:18:31;102952.13;;;21.72;58.02
19208;BME280;9737;59.466;18.036;2022-08-03T08:21:05;103078.91;;;21.89;58.28
19208;BME280;9737;59.466;18.036;2022-08-03T08:23:46;103217.72;;;22.28;58.25
19208;BME280;9737;59.466;18.036;2022-08-03T08:26:27;103318.75;;;22.41;58.37
19208;BME280;9737;59.466;18.036;2022-08-03T08:28:58;103384.53;;;22.67;58.28
19208;BME280;9737;59.466;18.036;2022-08-03T08:31:27;103375.03;;;22.62;58.43
19208;BME280;9737;59.466;18.036;2022-08-03T08:33:57;103268.97;;;22.31;58.29
19208;BME280;9737;59.466;18.036;2022-08-03T08:36:32;103205.34;;;22.13;58.31
19208;BME280;9737;59.466;18.036;2022-08-03T08:39:04;103269.34;;;22.38;58.47
19208;BME280;9737;59.466;18.036;2022-08-03T08:41:33;103151.88;;;22.15;58.17
19208;BME280;9737;59.466;18.036;2022-08-03T08:44:13;103081.16;;;21.84;58.42
19208;BME280;9737;59.466;18.036;2022-08-03T08:46:41;103144.88;;;22.12;58.18
19208;BME280;9737;59.466;18.036;2022-08-03T08:49:12;103144.97;;;22.00;58.44
19208;BME280;9737;59.466;18.036;2022-08-03T08:51:52;103176.03;;;22.07;58.24
19208;BME280;9737;59.466;18.036;2022-08-03T08:54:28;103116.59;;;21.92;58.26
19208;BME280;9737;59.466;18.036;2022-08-03T08:57:01;103123.28;;;22.00;58.27
19208;BME280;9737;59.466;18.036;2022-08-03T08:59:55;103225.72;;;22.30;58.39
19208;BME280;9737;59.466;18.036;2022-08-03T09:02:28;103145.09;;;21.98;58.17
19208;BME280;9737;59.466;18.036;2022-08-03T09:05:03;103238.63;;;22.26;58.35
19208;BME280;9737;59.466;18.036;2022-08-03T09:07:36;103279.81;;;22.31;58.25
19208;BME280;9737;59.466;18.036;2022-08-03T09:10:08;103367.25;;;22.57;58.32
19208;BME280;9737;59.466;18.036;2022-08-03T09:12:42;103436.19;;;22.66;58.59
19208;BME280;9737;59.466;18.036;2022-08-03T09:15:22;103454.19;;;22.67;58.41
19208;BME280;9737;59.466;18.036;2022-08-03T09:17:52;103481.13;;;22.81;58.61
19208;BME280;9737;59.466;18.036;2022-08-03T09:20:22;103521.38;;;22.87;58.36
19208;BME280;9737;59.466;18.036;2022-08-03T09:22:55;103589.41;;;23.08;58.34
19208;BME280;9737;59.466;18.036;2022-08-03T09:25:58;103718.84;;;23.31;58.25
19208;BME280;9737;59.466;18.036;2022-08-03T09:28:34;103739.22;;;23.37;58.30
19208;BME280;9737;59.466;18.036;2022-08-03T09:31:35;103815.75;;;23.55;58.48
19208;BME280;9737;59.466;18.036;2022-08-03T09:36:51;103976.41;;;23.87;58.65
19208;BME280;9737;59.466;18.036;2022-08-03T09:39:34;104061.59;;;24.11;58.64
19208;BME280;9737;59.466;18.036;2022-08-03T09:43:32;104246.19;;;24.41;58.42
19208;BME280;9737;59.466;18.036;2022-08-03T09:46:53;104350.50;;;24.78;58.46
19208;BME280;9737;59.466;18.036;2022-08-03T09:53:26;104589.16;;;25.30;58.57
19208;BME280;9737;59.466;18.036;2022-08-03T09:57:33;104524.44;;;25.08;58.40
19208;BME280;9737;59.466;18.036;2022-08-03T10:00:59;104621.88;;;25.30;58.47
19208;BME280;9737;59.466;18.036;2022-08-03T10:04:18;104712.16;;;25.51;58.32
19208;BME280;9737;59.466;18.036;2022-08-03T10:07:06;104868.38;;;25.78;58.13
19208;BME280;9737;59.466;18.036;2022-08-03T10:14:32;105045.69;;;26.18;58.43
19208;BME280;9737;59.466;18.036;2022-08-03T10:17:14;105052.88;;;26.19;58.37
19208;BME280;9737;59.466;18.036;2022-08-03T10:19:52;105187.78;;;26.56;58.24
19208;BME280;9737;59.466;18.036;2022-08-03T10:22:44;105127.22;;;26.37;58.44
19208;BME280;9737;59.466;18.036;2022-08-03T10:25:41;105179.44;;;26.45;57.92
19208;BME280;9737;59.466;18.036;2022-08-03T10:28:34;105290.31;;;26.74;58.09
19208;BME280;9737;59.466;18.036;2022-08-03T10:31:20;105474.16;;;27.17;57.79
19208;BME280;9737;59.466;18.036;2022-08-03T10:34:29;105531.28;;;27.22;57.92
19208;BME280;9737;59.466;18.036;2022-08-03T10:37:53;105348.91;;;26.83;58.05
19208;BME280;9737;59.466;18.036;2022-08-03T10:44:16;105400.13;;;26.94;57.47
19208;BME280;9737;59.466;18.036;2022-08-03T10:49:44;104980.38;;;26.02;57.47
19208;BME280;9737;59.466;18.036;2022-08-03T10:52:16;104934.88;;;26.03;57.52
19208;BME280;9737;59.466;18.036;2022-08-03T10:55:33;104876.03;;;25.86;57.46
19208;BME280;9737;59.466;18.036;2022-08-03T10:58:51;104836.53;;;25.79;57.34
19208;BME280;9737;59.466;18.036;2022-08-03T11:01:52;105110.75;;;26.38;57.51
19208;BME280;9737;59.466;18.036;2022-08-03T11:04:40;105435.31;;;27.12;57.09
19208;BME280;9737;59.466;18.036;2022-08-03T11:07:29;105669.94;;;27.63;57.20
19208;BME280;9737;59.466;18.036;2022-08-03T11:10:43;105437.38;;;27.09;56.96
19208;BME280;9737;59.466;18.036;2022-08-03T11:13:40;105331.22;;;26.89;57.39
19208;BME280;9737;59.466;18.036;2022-08-03T11:16:41;105446.75;;;27.19;56.99
19208;BME280;9737;59.466;18.036;2022-08-03T11:19:17;105318.97;;;26.81;56.89
19208;BME280;9737;59.466;18.036;2022-08-03T11:22:02;105102.88;;;26.34;57.23
19208;BME280;9737;59.466;18.036;2022-08-03T11:25:07;105177.97;;;26.66;56.91
19208;BME280;9737;59.466;18.036;2022-08-03T11:28:25;104961.84;;;26.20;56.82
19208;BME280;9737;59.466;18.036;2022-08-03T11:30:54;104846.25;;;25.83;56.46
19208;BME280;9737;59.466;18.036;2022-08-03T11:37:24;104631.34;;;25.37;56.35
19208;BME280;9737;59.466;18.036;2022-08-03T11:40:06;105098.19;;;26.48;56.40
19208;BME280;9737;59.466;18.036;2022-08-03T11:43:10;105658.19;;;27.61;56.49
19208;BME280;9737;59.466;18.036;2022-08-03T11:46:08;105507.81;;;27.32;56.17
19208;BME280;9737;59.466;18.036;2022-08-03T11:48:55;105474.88;;;27.21;56.28
19208;BME280;9737;59.466;18.036;2022-08-03T11:51:35;105646.84;;;27.67;56.50
19208;BME280;9737;59.466;18.036;2022-08-03T11:54:21;105385.66;;;27.06;56.45
19208;BME280;9737;59.466;18.036;2022-08-03T11:56:55;105065.88;;;26.42;56.09
19208;BME280;9737;59.466;18.036;2022-08-03T11:59:31;104952.91;;;26.18;56.31
19208;BME280;9737;59.466;18.036;2022-08-03T12:02:07;104672.03;;;25.53;56.04
19208;BME280;9737;59.466;18.036;2022-08-03T12:04:50;104582.75;;;25.31;56.06
19208;BME280;9737;59.466;18.036;2022-08-03T12:07:45;104472.81;;;25.07;55.72
19208;BME280;9737;59.466;18.036;2022-08-03T12:10:38;104382.63;;;24.98;55.72
19208;BME280;9737;59.466;18.036;2022-08-03T12:13:12;104259.31;;;24.60;55.46
19208;BME280;9737;59.466;18.036;2022-08-03T12:16:06;104214.56;;;24.64;55.56
19208;BME280;9737;59.466;18.036;2022-08-03T12:18:38;104280.94;;;24.74;55.75
19208;BME280;9737;59.466;18.036;2022-08-03T12:21:08;104300.09;;;24.73;55.36
19208;BME280;9737;59.466;18.036;2022-08-03T12:23:43;104305.84;;;24.81;55.40
19208;BME280;9737;59.466;18.036;2022-08-03T12:27:00;104219.25;;;24.62;55.18
19208;BME280;9737;59.466;18.036;2022-08-03T12:29:31;104177.97;;;24.55;55.37
19208;BME280;9737;59.466;18.036;2022-08-03T12:31:59;104136.00;;;24.47;55.23
19208;BME280;9737;59.466;18.036;2022-08-03T12:34:51;104203.22;;;24.57;55.38
19208;BME280;9737;59.466;18.036;2022-08-03T12:37:20;104316.19;;;24.88;55.18
19208;BME280;9737;59.466;18.036;2022-08-03T12:40:02;104505.22;;;25.35;55.20
19208;BME280;9737;59.466;18.036;2022-08-03T12:42:37;104614.44;;;25.57;55.37
19208;BME280;9737;59.466;18.036;2022-08-03T12:45:19;104593.31;;;25.48;55.41
19208;BME280;9737;59.466;18.036;2022-08-03T12:47:53;104656.09;;;25.59;55.19
19208;BME280;9737;59.466;18.036;2022-08-03T12:50:34;104752.31;;;25.87;55.11
19208;BME280;9737;59.466;18.036;2022-08-03T12:53:09;104808.38;;;25.91;55.06
19208;BME280;9737;59.466;18.036;2022-08-03T12:56:00;104811.44;;;25.86;54.88
19208;BME280;9737;59.466;18.036;2022-08-03T12:58:38;104995.75;;;26.43;54.91
19208;BME280;9737;59.466;18.036;2022-08-03T13:01:43;104966.06;;;26.38;55.03
19208;BME280;9737;59.466;18.036;2022-08-03T13:04:27;105078.13;;;26.62;54.79
19208;BME280;9737;59.466;18.036;2022-08-03T13:07:10;105266.63;;;26.88;54.93
19208;BME280;9737;59.466;18.036;2022-08-03T13:09:44;105639.28;;;27.85;54.78
19208;BME280;9737;59.466;18.036;2022-08-03T13:12:19;105832.50;;;28.16;55.01
19208;BME280;9737;59.466;18.036;2022-08-03T13:14:57;105770.50;;;28.00;55.12
19208;BME280;9737;59.466;18.036;2022-08-03T13:17:28;105832.84;;;28.24;54.88
19208;BME280;9737;59.466;18.036;2022-08-03T13:19:57;105885.88;;;28.23;54.85
19208;BME280;9737;59.466;18.036;2022-08-03T13:22:30;105849.13;;;28.27;54.73
19208;BME280;9737;59.466;18.036;2022-08-03T13:25:25;105999.75;;;28.55;54.71
19208;BME280;9737;59.466;18.036;2022-08-03T13:28:03;106013.94;;;28.48;54.93
19208;BME280;9737;59.466;18.036;2022-08-03T13:31:07;105702.81;;;27.90;54.93
19208;BME280;9737;59.466;18.036;2022-08-03T13:33:38;105595.22;;;27.75;54.97
19208;BME280;9737;59.466;18.036;2022-08-03T13:36:22;105371.19;;;27.18;54.77
19208;BME280;9737;59.466;18.036;2022-08-03T13:39:14;105140.84;;;26.76;54.46
19208;BME280;9737;59.466;18.036;2022-08-03T13:41:58;105123.69;;;26.74;54.76
19208;BME280;9737;59.466;18.036;2022-08-03T13:44:27;105168.59;;;26.70;54.79
19208;BME280;9737;59.466;18.036;2022-08-03T13:46:58;105315.81;;;27.02;54.65
19208;BME280;9737;59.466;18.036;2022-08-03T13:49:30;105190.03;;;26.76;54.62
19208;BME280;9737;59.466;18.036;2022-08-03T13:52:22;105107.19;;;26.63;54.30
19208;BME280;9737;59.466;18.036;2022-08-03T13:55:03;104952.28;;;26.40;54.55
19208;BME280;9737;59.466;18.036;2022-08-03T13:57:34;104809.47;;;26.01;54.14
19208;BME280;9737;59.466;18.036;2022-08-03T14:00:23;104865.91;;;26.13;54.11
19208;BME280;9737;59.466;18.036;2022-08-03T14:02:59;105053.09;;;26.55;54.18
19208;BME280;9737;59.466;18.036;2022-08-03T14:05:50;105036.69;;;26.55;53.99